Time;durP1;ratioP1;P1;durP2;ratioP2;P2;SDS_P1;SDS_P2;PMS_P1;PMS_P2;Temp;Humidity;BMP_temperature;BMP_pressure;BME280_temperature;BME280_humidity;BME280_pressure;Samples;Min_cycle;Max_cycle;Signal;HPM_P1;HPM_P2
2022/08/22 00:01:34;;;;;;;4.43;2.17;;;18.80;99.90;;;;;;5034920;28;20495;-72
2022/08/22 00:04:08;;;;;;;2.60;2.30;;;18.80;99.90;;;;;;5035121;28;20746;-72
2022/08/22 00:06:50;;;;;;;5.27;2.10;;;18.80;99.90;;;;;;5034880;28;20398;-72
2022/08/22 00:09:36;;;;;;;4.33;2.20;;;18.70;99.90;;;;;;5035092;28;20410;-72
2022/08/22 00:12:14;;;;;;;2.30;2.10;;;18.70;99.90;;;;;;5034083;28;20445;-72
2022/08/22 00:15:03;;;;;;;3.20;2.50;;;18.70;99.90;;;;;;5034738;28;20979;-72
2022/08/22 00:17:56;;;;;;;3.27;2.20;;;18.60;99.90;;;;;;5033207;28;20736;-72
2022/08/22 00:20:27;;;;;;;4.03;2.00;;;18.60;99.90;;;;;;5032848;28;20456;-72
2022/08/22 00:23:01;;;;;;;7.10;2.77;;;18.60;99.90;;;;;;5034060;28;20437;-72
2022/08/22 00:25:37;;;;;;;3.60;2.67;;;18.60;99.90;;;;;;5034606;28;20398;-72
2022/08/22 00:28:17;;;;;;;4.50;2.20;;;18.50;99.90;;;;;;5034872;28;20398;-72
2022/08/22 00:30:50;;;;;;;6.57;2.23;;;18.50;99.90;;;;;;5034517;28;20402;-72
2022/08/22 00:33:39;;;;;;;1.67;1.53;;;18.50;99.90;;;;;;5034428;28;20504;-72
2022/08/22 00:36:38;;;;;;;1.90;1.70;;;18.40;99.90;;;;;;5032536;28;20985;-72
2022/08/22 00:39:25;;;;;;;2.53;2.07;;;18.30;99.90;;;;;;5016874;28;20764;-72
2022/08/22 00:42:20;;;;;;;7.60;2.53;;;18.30;99.90;;;;;;5034035;28;20604;-72
2022/08/22 00:45:22;;;;;;;5.83;3.33;;;18.20;99.90;;;;;;5032809;28;20424;-72
2022/08/22 00:48:12;;;;;;;2.90;2.10;;;18.20;99.90;;;;;;5033152;28;20986;-72
2022/08/22 00:50:56;;;;;;;7.23;2.00;;;18.10;99.90;;;;;;5034107;28;20430;-73
2022/08/22 00:53:49;;;;;;;4.53;1.87;;;18.00;99.90;;;;;;5031753;28;20954;-72
2022/08/22 00:56:58;;;;;;;3.83;2.33;;;18.00;99.90;;;;;;5032868;28;20476;-72
2022/08/22 00:59:39;;;;;;;2.30;1.70;;;17.90;99.90;;;;;;5034246;28;20899;-73
2022/08/22 01:02:28;;;;;;;2.77;2.40;;;17.90;99.90;;;;;;5033911;28;20529;-72
2022/08/22 01:05:37;;;;;;;3.53;2.57;;;17.80;99.90;;;;;;5033881;28;20505;-72
2022/08/22 01:08:18;;;;;;;7.47;2.20;;;17.80;99.90;;;;;;5034075;28;20917;-72
2022/08/22 01:11:04;;;;;;;3.20;2.43;;;17.70;99.90;;;;;;5033944;28;20420;-72
2022/08/22 01:13:58;;;;;;;6.53;2.60;;;17.70;99.90;;;;;;5029219;28;20469;-72
2022/08/22 01:16:39;;;;;;;6.67;2.47;;;17.70;99.90;;;;;;5005809;28;20454;-72
2022/08/22 01:19:39;;;;;;;2.80;2.10;;;17.60;99.90;;;;;;5014051;28;20893;-73
2022/08/22 01:22:32;;;;;;;2.90;2.57;;;17.60;99.90;;;;;;5023565;28;20800;-73
2022/08/22 01:25:19;;;;;;;2.63;2.10;;;17.50;99.90;;;;;;5033396;28;20417;-72
2022/08/22 01:28:01;;;;;;;2.83;2.40;;;17.50;99.90;;;;;;5033520;28;20430;-72
2022/08/22 01:30:27;;;;;;;6.70;2.37;;;17.40;99.90;;;;;;5033531;28;20402;-72
2022/08/22 01:33:13;;;;;;;5.00;1.97;;;17.40;99.90;;;;;;5031159;28;20548;-72
2022/08/22 01:35:41;;;;;;;2.77;2.57;;;17.40;99.90;;;;;;5033112;28;20221;-72
2022/08/22 01:38:48;;;;;;;2.40;2.13;;;17.30;99.90;;;;;;5033304;28;20399;-72
2022/08/22 01:41:43;;;;;;;2.10;1.87;;;17.30;99.90;;;;;;5010781;28;20419;-72
2022/08/22 01:44:19;;;;;;;6.93;2.93;;;17.20;99.90;;;;;;5011004;28;20446;-72
2022/08/22 01:47:22;;;;;;;4.00;2.40;;;17.20;99.90;;;;;;5013045;28;20499;-72
2022/08/22 01:50:23;;;;;;;3.57;2.33;;;17.20;99.90;;;;;;4993887;28;20422;-72
2022/08/22 01:53:02;;;;;;;20.80;12.50;;;17.10;99.90;;;;;;5026641;28;20520;-72
2022/08/22 01:55:37;;;;;;;8.23;6.63;;;17.10;99.90;;;;;;5031133;28;20495;-72
2022/08/22 01:58:28;;;;;;;3.17;2.87;;;17.10;99.90;;;;;;5033052;28;20398;-72
2022/08/22 02:01:30;;;;;;;5.70;2.40;;;17.10;99.90;;;;;;5032113;28;20422;-72
2022/08/22 02:04:01;;;;;;;2.83;2.43;;;17.10;99.90;;;;;;5032796;28;20422;-72
2022/08/22 02:06:59;;;;;;;4.07;2.70;;;17.10;99.90;;;;;;5031326;28;20410;-72
2022/08/22 02:09:52;;;;;;;2.43;2.23;;;17.00;99.90;;;;;;5031536;28;20495;-72
2022/08/22 02:12:18;;;;;;;4.43;2.33;;;17.00;99.90;;;;;;5030249;28;20469;-72
2022/08/22 02:14:57;;;;;;;9.53;2.60;;;17.00;99.90;;;;;;5032290;28;20406;-72
2022/08/22 02:17:31;;;;;;;4.57;2.70;;;16.90;99.90;;;;;;5032713;28;20206;-72
2022/08/22 02:20:00;;;;;;;2.93;2.73;;;16.90;99.90;;;;;;5032665;28;20824;-72
2022/08/22 02:22:41;;;;;;;5.87;2.40;;;16.90;99.90;;;;;;5032009;28;20445;-71
2022/08/22 02:25:20;;;;;;;4.73;2.73;;;16.90;99.90;;;;;;5032440;28;20627;-72
2022/08/22 02:28:09;;;;;;;2.30;2.10;;;16.90;99.90;;;;;;5032470;28;20402;-72
2022/08/22 02:30:53;;;;;;;3.00;2.80;;;16.90;99.90;;;;;;5032079;28;20405;-72
2022/08/22 02:33:45;;;;;;;2.97;2.40;;;16.90;99.90;;;;;;5032273;28;20453;-71
2022/08/22 02:36:29;;;;;;;3.00;2.70;;;16.90;99.90;;;;;;5029280;28;20472;-72
2022/08/22 02:39:15;;;;;;;2.83;2.20;;;16.90;99.90;;;;;;5032464;28;20489;-71
2022/08/22 02:41:54;;;;;;;3.90;2.50;;;16.80;99.90;;;;;;5031548;28;20784;-72
2022/08/22 02:44:37;;;;;;;6.20;4.03;;;16.70;99.90;;;;;;5031305;28;20434;-71
2022/08/22 02:47:11;;;;;;;3.50;2.63;;;16.70;99.90;;;;;;5032132;28;20414;-72
2022/08/22 02:50:14;;;;;;;3.57;2.33;;;16.70;99.90;;;;;;5032133;28;20561;-72
2022/08/22 02:52:45;;;;;;;21.77;14.63;;;16.70;99.90;;;;;;5030233;28;20869;-72
2022/08/22 02:55:20;;;;;;;5.33;3.37;;;16.70;99.90;;;;;;5031803;28;20460;-72
2022/08/22 02:58:23;;;;;;;4.80;3.10;;;16.70;99.90;;;;;;5031970;28;20417;-72
2022/08/22 03:01:11;;;;;;;2.60;2.40;;;16.70;99.90;;;;;;5031587;28;20927;-72
2022/08/22 03:03:41;;;;;;;3.50;3.00;;;16.60;99.90;;;;;;5031370;28;20461;-71
2022/08/22 03:06:36;;;;;;;4.87;3.30;;;16.60;99.90;;;;;;5031724;28;20410;-72
2022/08/22 03:09:06;;;;;;;6.30;3.87;;;16.60;99.90;;;;;;5030867;28;20472;-71
2022/08/22 03:11:37;;;;;;;7.30;4.13;;;16.50;99.90;;;;;;5028731;28;20438;-71
2022/08/22 03:14:14;;;;;;;5.40;3.97;;;16.50;99.90;;;;;;5031973;28;21066;-72
2022/08/22 03:16:49;;;;;;;3.20;2.90;;;16.50;99.90;;;;;;5031972;28;20410;-71
2022/08/22 03:19:59;;;;;;;5.57;3.03;;;16.50;99.90;;;;;;5030590;28;20424;-72
2022/08/22 03:22:31;;;;;;;6.13;2.67;;;16.50;99.90;;;;;;4989735;28;20586;-71
2022/08/22 03:25:28;;;;;;;3.60;3.00;;;16.40;99.90;;;;;;4989770;28;20829;-72
2022/08/22 03:27:58;;;;;;;3.70;3.40;;;16.40;99.90;;;;;;5021761;28;20795;-72
2022/08/22 03:30:43;;;;;;;3.03;2.70;;;16.40;99.90;;;;;;5030537;28;21277;-72
2022/08/22 03:33:17;;;;;;;4.90;3.40;;;16.50;99.90;;;;;;5030285;28;20465;-71
2022/08/22 03:35:45;;;;;;;3.23;2.90;;;16.50;99.90;;;;;;5030123;28;20828;-71
2022/08/22 03:38:33;;;;;;;2.73;2.53;;;16.50;99.90;;;;;;5031674;28;20745;-72
2022/08/22 03:41:30;;;;;;;3.30;2.50;;;16.50;99.90;;;;;;5029463;28;20423;-71
2022/08/22 03:44:24;;;;;;;3.33;3.03;;;16.50;99.90;;;;;;5030271;28;20429;-71
2022/08/22 03:47:15;;;;;;;3.90;2.63;;;16.50;99.90;;;;;;5031573;28;20434;-72
2022/08/22 03:49:46;;;;;;;2.93;2.63;;;16.50;99.90;;;;;;5030112;28;20465;-71
2022/08/22 03:55:50;;;;;;;7.60;3.50;;;16.50;99.90;;;;;;5032630;28;20951;-72
2022/08/22 03:58:35;;;;;;;9.00;4.47;;;16.50;99.90;;;;;;5035311;28;20433;-72
2022/08/22 04:01:25;;;;;;;3.20;2.37;;;16.50;99.90;;;;;;5033843;28;20468;-72
2022/08/22 04:04:09;;;;;;;6.07;4.13;;;16.50;99.90;;;;;;5034952;28;20985;-72
2022/08/22 04:06:35;;;;;;;5.37;3.13;;;16.60;99.90;;;;;;5033662;28;20953;-72
2022/08/22 04:09:34;;;;;;;5.20;3.10;;;16.60;99.90;;;;;;5034993;28;20436;-72
2022/08/22 04:12:16;;;;;;;2.93;2.47;;;16.60;99.90;;;;;;5034628;28;20195;-72
2022/08/22 04:14:44;;;;;;;2.83;2.63;;;16.60;99.90;;;;;;5034685;28;20767;-72
2022/08/22 04:17:37;;;;;;;3.40;2.67;;;16.60;99.90;;;;;;5034923;28;20756;-71
2022/08/22 04:20:09;;;;;;;4.70;3.07;;;16.60;99.90;;;;;;5034288;28;20405;-72
2022/08/22 04:22:53;;;;;;;2.70;2.50;;;16.60;99.90;;;;;;5034805;28;20829;-72
2022/08/22 04:25:24;;;;;;;6.10;3.70;;;16.50;99.90;;;;;;5034481;28;20405;-72
2022/08/22 04:28:23;;;;;;;3.07;2.63;;;16.50;99.90;;;;;;5034731;28;20428;-72
2022/08/22 04:31:07;;;;;;;3.47;3.17;;;16.40;99.90;;;;;;5033964;28;20493;-72
2022/08/22 04:33:44;;;;;;;7.30;5.33;;;16.40;99.90;;;;;;5034498;28;20787;-72
2022/08/22 04:36:26;;;;;;;6.60;5.27;;;16.30;99.90;;;;;;5034316;28;20421;-72
2022/08/22 04:39:09;;;;;;;5.90;3.57;;;16.30;99.90;;;;;;5034596;28;20459;-72
2022/08/22 04:41:49;;;;;;;3.00;2.60;;;16.40;99.90;;;;;;5032727;28;20418;-72
2022/08/22 04:44:45;;;;;;;5.67;3.53;;;16.40;99.90;;;;;;5034162;28;20890;-72
2022/08/22 04:47:36;;;;;;;2.80;2.60;;;16.40;99.90;;;;;;5034416;28;20403;-72
2022/08/22 04:50:07;;;;;;;11.53;3.53;;;16.40;99.90;;;;;;5032398;28;20460;-72
2022/08/22 04:52:45;;;;;;;3.27;2.80;;;16.50;99.90;;;;;;5033680;28;20537;-72
2022/08/22 04:55:49;;;;;;;3.93;2.70;;;16.50;99.90;;;;;;5034104;28;20794;-72
2022/08/22 04:58:23;;;;;;;4.70;3.00;;;16.60;99.90;;;;;;5034484;28;20908;-72
2022/08/22 05:01:03;;;;;;;4.93;3.40;;;16.70;99.90;;;;;;5033744;28;20428;-72
2022/08/22 05:03:33;;;;;;;5.57;3.57;;;16.70;99.90;;;;;;5033940;28;20966;-72
2022/08/22 05:06:01;;;;;;;5.10;4.60;;;16.80;99.90;;;;;;5033850;28;20403;-72
2022/08/22 05:08:32;;;;;;;5.10;2.93;;;16.90;99.90;;;;;;5033392;28;20410;-72
2022/08/22 05:11:00;;;;;;;3.60;3.30;;;16.90;99.90;;;;;;5033705;28;20430;-72
2022/08/22 05:13:31;;;;;;;3.80;3.10;;;17.00;99.90;;;;;;5033625;28;20481;-72
2022/08/22 05:16:02;;;;;;;2.97;2.60;;;17.00;99.90;;;;;;5033564;28;20410;-72
2022/08/22 05:18:33;;;;;;;3.70;3.40;;;17.10;99.90;;;;;;5033809;28;20402;-72
2022/08/22 05:21:03;;;;;;;3.77;3.03;;;17.00;99.90;;;;;;5033539;28;20418;-72
2022/08/22 05:23:42;;;;;;;2.70;2.50;;;17.10;99.90;;;;;;5033541;28;20515;-71
2022/08/22 05:26:09;;;;;;;3.27;3.00;;;17.10;99.90;;;;;;5033396;28;20434;-72
2022/08/22 05:28:39;;;;;;;3.67;2.90;;;17.20;99.90;;;;;;5033585;28;20406;-72
2022/08/22 05:31:10;;;;;;;3.50;2.93;;;17.20;99.90;;;;;;5033127;28;20918;-72
2022/08/22 05:33:46;;;;;;;2.63;2.43;;;17.20;99.90;;;;;;5033322;28;20430;-72
2022/08/22 05:36:18;;;;;;;3.20;2.80;;;17.30;99.90;;;;;;5031890;28;20421;-72
2022/08/22 05:38:49;;;;;;;4.63;3.10;;;17.40;99.90;;;;;;5033383;28;20501;-72
2022/08/22 05:41:24;;;;;;;3.30;3.00;;;17.50;99.90;;;;;;5033121;28;20511;-72
2022/08/22 05:43:52;;;;;;;3.33;3.03;;;17.60;99.90;;;;;;5033075;28;20457;-72
2022/08/22 05:46:38;;;;;;;8.33;3.70;;;17.70;99.90;;;;;;5032845;28;20425;-72
2022/08/22 05:49:21;;;;;;;4.27;3.87;;;17.80;99.90;;;;;;5032059;28;20414;-72
2022/08/22 05:51:49;;;;;;;9.80;3.60;;;18.10;99.90;;;;;;5031164;28;20484;-72
2022/08/22 05:54:20;;;;;;;7.17;3.70;;;18.40;99.90;;;;;;5032867;28;20775;-72
2022/08/22 05:56:56;;;;;;;7.60;3.63;;;18.80;99.90;;;;;;5033033;28;20419;-72
2022/08/22 05:59:34;;;;;;;7.13;3.10;;;19.30;99.90;;;;;;5033006;28;20416;-72
2022/08/22 06:02:10;;;;;;;6.70;2.87;;;19.90;99.90;;;;;;5032643;28;20442;-72
2022/08/22 06:04:53;;;;;;;4.57;2.80;;;20.50;99.90;;;;;;5032622;28;20415;-72
2022/08/22 06:07:24;;;;;;;4.63;2.83;;;21.10;99.90;;;;;;5032831;28;20495;-72
2022/08/22 06:10:12;;;;;;;5.50;2.93;;;21.80;99.90;;;;;;5032835;28;20433;-72
2022/08/22 06:12:43;;;;;;;3.90;2.93;;;22.50;99.90;;;;;;5012974;28;20427;-72
2022/08/22 06:15:21;;;;;;;6.40;3.43;;;23.10;99.90;;;;;;5011502;28;20423;-70
2022/08/22 06:17:59;;;;;;;5.43;3.03;;;23.80;99.90;;;;;;5011634;28;20489;-71
2022/08/22 06:20:46;;;;;;;3.77;3.00;;;24.40;99.90;;;;;;5015347;28;20525;-72
2022/08/22 06:23:23;;;;;;;2.60;2.40;;;24.80;99.90;;;;;;5032418;28;20450;-72
2022/08/22 06:25:51;;;;;;;6.87;3.10;;;25.10;99.90;;;;;;5032217;28;20406;-72
2022/08/22 06:28:23;;;;;;;6.53;3.23;;;25.40;99.90;;;;;;5032144;28;20428;-72
2022/08/22 06:30:52;;;;;;;3.50;2.40;;;25.60;99.90;;;;;;5030940;28;20445;-72
2022/08/22 06:33:24;;;;;;;3.10;2.50;;;25.70;99.90;;;;;;5032318;28;20457;-71
2022/08/22 06:38:58;;;;;;;7.30;3.30;;;25.70;99.90;;;;;;5032301;28;20444;-71
2022/08/22 06:41:29;;;;;;;3.97;3.10;;;25.80;99.90;;;;;;5032183;28;20414;-71
2022/08/22 06:43:56;;;;;;;4.17;2.70;;;26.10;99.90;;;;;;5032125;28;20457;-72
2022/08/22 06:46:26;;;;;;;6.83;3.60;;;26.40;99.90;;;;;;5031964;28;20403;-72
2022/08/22 06:48:54;;;;;;;4.20;2.67;;;26.90;99.90;;;;;;5032185;28;20405;-72
2022/08/22 06:51:23;;;;;;;3.20;2.90;;;27.30;99.90;;;;;;5031403;28;20430;-72
2022/08/22 06:53:53;;;;;;;3.80;2.57;;;27.80;99.90;;;;;;5030368;28;20430;-72
2022/08/22 06:56:24;;;;;;;2.90;2.60;;;28.30;96.50;;;;;;5031864;28;20430;-72
2022/08/22 06:58:55;;;;;;;5.10;3.20;;;28.80;92.90;;;;;;5032028;28;20477;-72
2022/08/22 07:01:26;;;;;;;4.37;3.97;;;29.10;90.00;;;;;;5031751;28;20421;-72
2022/08/22 07:03:59;;;;;;;3.77;3.00;;;29.20;87.90;;;;;;5031494;28;20469;-72
2022/08/22 07:06:34;;;;;;;2.80;2.13;;;29.50;85.80;;;;;;5031599;28;20454;-72
2022/08/22 07:09:01;;;;;;;2.80;2.47;;;29.90;81.50;;;;;;5032005;28;20481;-72
2022/08/22 07:11:29;;;;;;;10.90;3.40;;;30.60;76.10;;;;;;5031679;28;20691;-72
2022/08/22 07:14:02;;;;;;;2.80;2.60;;;31.10;72.30;;;;;;5030206;28;20766;-72
2022/08/22 07:16:38;;;;;;;4.50;2.40;;;31.80;68.90;;;;;;5030372;28;20893;-72
2022/08/22 07:19:04;;;;;;;2.80;2.47;;;32.50;64.80;;;;;;5031676;28;20453;-72
2022/08/22 07:21:43;;;;;;;4.53;2.70;;;33.20;60.00;;;;;;5031846;28;20402;-72
2022/08/22 07:24:12;;;;;;;6.90;3.10;;;33.90;57.40;;;;;;5031612;28;20446;-72
2022/08/22 07:27:01;;;;;;;8.57;2.70;;;34.40;54.00;;;;;;5031632;28;20521;-72
2022/08/22 07:30:01;;;;;;;2.60;2.40;;;34.30;53.40;;;;;;5030344;28;20419;-72
2022/08/22 07:32:50;;;;;;;14.00;3.50;;;34.20;52.80;;;;;;5035677;28;20422;-72
2022/08/22 07:35:50;;;;;;;2.97;2.67;;;34.30;53.40;;;;;;5035472;28;20888;-72
2022/08/22 07:38:41;;;;;;;3.17;2.13;;;34.30;52.50;;;;;;5034097;28;20434;-72
2022/08/22 07:41:13;;;;;;;4.43;2.87;;;33.90;51.90;;;;;;5035246;28;20413;-73
2022/08/22 07:43:53;;;;;;;3.50;2.33;;;33.70;51.90;;;;;;5035150;28;20469;-72
2022/08/22 07:46:40;;;;;;;2.60;2.40;;;33.60;52.30;;;;;;5034982;28;20409;-73
2022/08/22 07:49:23;;;;;;;2.60;2.40;;;33.90;51.30;;;;;;5035038;28;20756;-72
2022/08/22 07:51:52;;;;;;;4.43;3.03;;;33.70;50.90;;;;;;5035258;28;20477;-72
2022/08/22 07:54:41;;;;;;;4.80;2.50;;;33.60;50.70;;;;;;5035027;28;20456;-73
2022/08/22 07:57:13;;;;;;;4.23;2.83;;;33.10;50.90;;;;;;5034052;28;20406;-72
2022/08/22 07:59:45;;;;;;;2.53;2.33;;;32.70;51.30;;;;;;5035279;28;20418;-72
2022/08/22 08:02:12;;;;;;;7.93;3.33;;;32.30;52.80;;;;;;5035132;28;20410;-72
2022/08/22 08:04:39;;;;;;;6.40;3.80;;;32.00;52.40;;;;;;5034809;28;20395;-72
2022/08/22 08:07:09;;;;;;;5.50;3.60;;;31.70;53.70;;;;;;5035054;28;20407;-72
2022/08/22 08:09:43;;;;;;;3.17;2.80;;;31.30;54.80;;;;;;5034864;28;20402;-73
2022/08/22 08:12:10;;;;;;;4.53;3.20;;;31.10;55.00;;;;;;5033593;28;20422;-73
2022/08/22 08:14:40;;;;;;;3.77;3.03;;;31.00;55.60;;;;;;5034715;28;20406;-72
2022/08/22 08:17:22;;;;;;;4.33;3.97;;;31.00;55.30;;;;;;5035035;28;20422;-72
2022/08/22 08:19:49;;;;;;;3.50;3.20;;;31.00;54.30;;;;;;5015097;28;20402;-72
2022/08/22 08:22:22;;;;;;;6.40;2.97;;;31.40;56.70;;;;;;5013692;28;20485;-72
2022/08/22 08:24:49;;;;;;;5.83;2.80;;;32.00;55.90;;;;;;5014704;28;20399;-72
2022/08/22 08:30:10;;;;;;;3.03;2.70;;;34.00;50.90;;;;;;5035010;28;20744;-72
2022/08/22 08:32:38;;;;;;;5.40;2.60;;;35.70;50.00;;;;;;5034597;28;20422;-73
2022/08/22 08:35:12;;;;;;;3.60;3.17;;;37.20;47.90;;;;;;5034046;28;20779;-73
2022/08/22 08:37:46;;;;;;;3.43;2.17;;;38.60;44.40;;;;;;5034664;28;20413;-73
2022/08/22 08:40:46;;;;;;;3.00;2.63;;;38.90;42.50;;;;;;5034519;28;20385;-73
2022/08/22 08:43:28;;;;;;;7.50;4.07;;;38.20;41.00;;;;;;5025119;28;20592;-72
2022/08/22 08:46:15;;;;;;;3.00;2.50;;;37.40;42.10;;;;;;5033933;28;20422;-72
2022/08/22 08:49:12;;;;;;;3.73;2.57;;;36.50;41.20;;;;;;5033135;28;20772;-72
2022/08/22 08:51:58;;;;;;;3.00;2.43;;;35.70;44.20;;;;;;5034135;28;20421;-72
2022/08/22 08:54:35;;;;;;;4.00;2.20;;;35.00;43.20;;;;;;5033701;28;20928;-72
2022/08/22 08:57:28;;;;;;;2.37;2.00;;;34.30;44.10;;;;;;5033061;28;20402;-72
2022/08/22 09:00:09;;;;;;;2.37;1.90;;;33.70;45.90;;;;;;5034167;28;20408;-72
2022/08/22 09:03:04;;;;;;;4.70;2.03;;;33.50;46.60;;;;;;5034100;28;20493;-72
2022/08/22 09:06:06;;;;;;;1.77;1.57;;;33.30;46.40;;;;;;5033610;28;20422;-72
2022/08/22 09:08:41;;;;;;;3.77;2.20;;;33.20;47.10;;;;;;5033988;28;20596;-72
2022/08/22 09:11:32;;;;;;;4.63;2.37;;;33.30;47.20;;;;;;5034004;28;20402;-74
2022/08/22 09:14:11;;;;;;;1.83;1.60;;;33.50;46.60;;;;;;5032554;28;20884;-72
2022/08/22 09:17:00;;;;;;;3.37;1.57;;;33.70;47.80;;;;;;5014067;28;20494;-72
2022/08/22 09:19:50;;;;;;;2.77;2.00;;;33.90;47.30;;;;;;5014133;28;20821;-72
2022/08/22 09:22:34;;;;;;;2.60;1.97;;;34.40;46.00;;;;;;5012543;28;20469;-72
2022/08/22 09:25:21;;;;;;;2.50;1.70;;;35.20;45.00;;;;;;5020934;28;20449;-72
2022/08/22 09:27:59;;;;;;;3.10;2.03;;;36.90;42.20;;;;;;5032359;28;20996;-72
2022/08/22 09:30:49;;;;;;;2.40;2.20;;;38.70;40.60;;;;;;5031380;28;20810;-72
2022/08/22 09:33:18;;;;;;;1.60;1.50;;;39.80;38.70;;;;;;5032405;28;20753;-72
2022/08/22 09:36:14;;;;;;;4.03;1.70;;;41.60;36.80;;;;;;5032745;28;20449;-72
2022/08/22 09:39:07;;;;;;;4.43;2.10;;;42.70;34.50;;;;;;5033169;28;20373;-72
2022/08/22 09:42:03;;;;;;;1.90;1.73;;;43.70;33.50;;;;;;5032283;28;20381;-72
2022/08/22 09:44:48;;;;;;;2.50;2.03;;;44.30;33.40;;;;;;5032674;28;20471;-72
2022/08/22 09:47:19;;;;;;;2.97;2.40;;;45.20;32.60;;;;;;5032987;28;20485;-72
2022/08/22 09:50:05;;;;;;;3.00;2.70;;;46.40;29.50;;;;;;5032887;28;20434;-72
2022/08/22 09:52:52;;;;;;;2.30;2.10;;;47.30;28.40;;;;;;5032309;28;20430;-72
2022/08/22 09:55:17;;;;;;;2.10;1.90;;;47.60;28.70;;;;;;5031062;28;20460;-72
2022/08/22 09:57:53;;;;;;;2.30;2.10;;;48.00;29.00;;;;;;5032685;28;20913;-72
2022/08/22 10:00:42;;;;;;;2.33;2.20;;;48.80;29.30;;;;;;5032719;28;20195;-72
2022/08/22 10:03:59;;;;;;;3.17;2.87;;;49.40;26.90;;;;;;5032152;28;20448;-72
2022/08/22 10:06:34;;;;;;;3.50;2.50;;;49.70;26.40;;;;;;5015109;28;20381;-72
2022/08/22 10:09:05;;;;;;;4.10;3.67;;;50.10;27.30;;;;;;5032544;28;20402;-72
2022/08/22 10:12:01;;;;;;;3.80;3.00;;;50.60;26.00;;;;;;5032327;28;20418;-72
2022/08/22 10:14:50;;;;;;;3.07;2.87;;;51.10;26.30;;;;;;5016003;28;20515;-71
2022/08/22 10:17:30;;;;;;;3.63;3.17;;;51.20;25.60;;;;;;5032081;28;20406;-72
2022/08/22 10:20:23;;;;;;;3.60;3.30;;;51.30;25.00;;;;;;5032354;28;20413;-72
2022/08/22 10:23:23;;;;;;;3.33;3.03;;;51.30;24.90;;;;;;5029853;28;20457;-72
2022/08/22 10:25:56;;;;;;;3.30;3.00;;;52.10;24.10;;;;;;5012329;28;20406;-72
2022/08/22 10:28:34;;;;;;;4.13;3.20;;;51.50;24.90;;;;;;5012611;28;20403;-72
2022/08/22 10:31:10;;;;;;;2.53;2.33;;;50.20;25.10;;;;;;5012555;28;20399;-72
2022/08/22 10:33:49;;;;;;;2.40;2.20;;;48.70;24.90;;;;;;5031642;28;20443;-72
2022/08/22 10:36:22;;;;;;;3.10;2.00;;;46.70;25.40;;;;;;5032074;28;20373;-73
2022/08/22 10:38:53;;;;;;;2.47;2.27;;;45.00;27.10;;;;;;5032058;28;20452;-73
2022/08/22 10:41:36;;;;;;;1.80;1.70;;;43.60;27.30;;;;;;5031625;28;20402;-73
2022/08/22 10:44:27;;;;;;;3.27;2.10;;;42.30;28.00;;;;;;5012407;28;20489;-73
2022/08/22 10:46:59;;;;;;;2.10;1.90;;;41.40;28.10;;;;;;5012400;28;20439;-73
2022/08/22 10:49:35;;;;;;;2.20;2.00;;;40.10;30.10;;;;;;5012317;28;20399;-73
2022/08/22 10:52:34;;;;;;;2.10;1.90;;;39.30;31.10;;;;;;5015916;28;21049;-72
2022/08/22 10:55:14;;;;;;;2.43;1.97;;;38.80;30.40;;;;;;5031574;28;20459;-72
2022/08/22 10:58:03;;;;;;;2.20;2.00;;;38.80;32.50;;;;;;5030433;28;20402;-72
2022/08/22 11:01:00;;;;;;;3.10;2.47;;;38.90;31.50;;;;;;5031690;28;20402;-73
2022/08/22 11:03:39;;;;;;;2.57;2.03;;;39.00;32.50;;;;;;5031502;28;20441;-73
2022/08/22 11:06:29;;;;;;;1.97;1.87;;;39.00;31.80;;;;;;5031140;28;20874;-73
2022/08/22 11:09:05;;;;;;;4.03;1.80;;;38.90;30.60;;;;;;5031818;28;20394;-73
2022/08/22 11:11:57;;;;;;;3.07;2.47;;;38.90;31.40;;;;;;5031771;28;20402;-73
2022/08/22 11:14:45;;;;;;;2.43;2.03;;;39.70;34.00;;;;;;5011611;28;20578;-72
2022/08/22 11:17:31;;;;;;;2.80;2.17;;;41.30;30.90;;;;;;5011548;28;20423;-72
2022/08/22 11:20:05;;;;;;;2.50;2.30;;;43.90;29.10;;;;;;5011678;28;20395;-72
2022/08/22 11:22:37;;;;;;;3.07;2.43;;;46.10;27.10;;;;;;5019192;28;20416;-72
2022/08/22 11:25:12;;;;;;;2.40;2.20;;;47.60;25.90;;;;;;5031288;28;20373;-72
2022/08/22 11:27:41;;;;;;;2.30;2.10;;;48.70;25.70;;;;;;5031500;28;20941;-72
2022/08/22 11:30:13;;;;;;;2.40;2.30;;;49.00;25.80;;;;;;5031458;28;20497;-72
2022/08/22 11:32:58;;;;;;;2.40;2.30;;;48.80;25.50;;;;;;5031340;28;20995;-70
2022/08/22 11:35:38;;;;;;;4.50;2.57;;;48.00;25.90;;;;;;5029964;28;20827;-70
2022/08/22 11:38:15;;;;;;;3.03;2.40;;;47.00;24.20;;;;;;5031280;28;20426;-70
2022/08/22 11:41:01;;;;;;;2.23;2.03;;;46.20;25.10;;;;;;5030147;28;20391;-69
2022/08/22 11:43:47;;;;;;;2.93;2.53;;;45.50;26.00;;;;;;5029807;28;20523;-70
2022/08/22 11:46:22;;;;;;;5.07;2.90;;;45.00;25.40;;;;;;5031068;28;20409;-70
2022/08/22 11:49:04;;;;;;;2.23;2.03;;;45.70;25.50;;;;;;5029990;28;20467;-70
2022/08/22 11:51:56;;;;;;;2.77;2.47;;;47.00;24.70;;;;;;5031084;28;20399;-70
2022/08/22 11:54:28;;;;;;;2.40;2.20;;;47.80;23.70;;;;;;5021511;28;20520;-73
2022/08/22 11:57:10;;;;;;;3.33;3.03;;;48.80;25.50;;;;;;5031266;28;20377;-73
2022/08/22 11:59:41;;;;;;;4.03;2.63;;;49.50;24.80;;;;;;5031133;28;20414;-73
2022/08/22 12:02:27;;;;;;;2.80;2.60;;;48.60;23.70;;;;;;5030953;28;20412;-73
2022/08/22 12:05:20;;;;;;;1.97;1.77;;;47.20;22.80;;;;;;5030817;28;20459;-70
2022/08/22 12:08:10;;;;;;;2.20;2.00;;;45.10;24.10;;;;;;5029959;28;20580;-70
2022/08/22 12:10:46;;;;;;;3.37;2.37;;;43.40;25.50;;;;;;5031309;28;20401;-71
2022/08/22 12:13:50;;;;;;;1.77;1.63;;;42.30;26.50;;;;;;5030860;28;20428;-70
2022/08/22 12:16:39;;;;;;;2.30;2.10;;;41.60;26.30;;;;;;5022579;28;20388;-73
2022/08/22 12:19:05;;;;;;;2.17;2.07;;;40.40;27.10;;;;;;5034482;28;20501;-73
2022/08/22 12:21:50;;;;;;;3.07;2.07;;;39.60;29.70;;;;;;5034262;28;20468;-73
2022/08/22 12:24:49;;;;;;;2.23;1.73;;;39.00;30.20;;;;;;5034374;28;20178;-73
2022/08/22 12:27:20;;;;;;;2.13;1.93;;;38.60;30.00;;;;;;5034441;28;20713;-73
2022/08/22 12:29:54;;;;;;;2.97;2.20;;;38.30;30.10;;;;;;5034622;28;20435;-73
2022/08/22 12:32:32;;;;;;;2.57;2.37;;;38.10;29.90;;;;;;5034288;28;20969;-73
2022/08/22 12:35:33;;;;;;;3.37;1.93;;;37.60;30.00;;;;;;5034131;28;20777;-73
2022/08/22 12:38:05;;;;;;;2.40;2.00;;;37.30;29.80;;;;;;5034155;28;20396;-72
2022/08/22 12:40:36;;;;;;;1.90;1.70;;;36.60;31.40;;;;;;5034104;28;20433;-72
2022/08/22 12:43:17;;;;;;;2.40;2.20;;;36.10;30.80;;;;;;5033828;28;20422;-73
2022/08/22 12:45:57;;;;;;;2.23;2.03;;;35.70;33.50;;;;;;5033695;28;20402;-73
2022/08/22 12:48:51;;;;;;;2.00;1.80;;;35.40;34.30;;;;;;5034252;28;20775;-72
2022/08/22 12:51:31;;;;;;;2.00;1.77;;;35.00;34.30;;;;;;5033785;28;20934;-72
2022/08/22 12:54:15;;;;;;;2.30;2.10;;;34.80;34.80;;;;;;5033871;28;20454;-72
2022/08/22 12:56:41;;;;;;;3.50;2.17;;;34.70;36.80;;;;;;5033741;28;20452;-73
2022/08/22 12:59:29;;;;;;;6.10;2.37;;;34.60;35.80;;;;;;5033858;28;20489;-73
2022/08/22 13:02:01;;;;;;;7.13;2.40;;;34.60;36.50;;;;;;5033633;28;20190;-73
2022/08/22 13:04:34;;;;;;;2.30;1.90;;;34.40;35.30;;;;;;5033507;28;20398;-73
2022/08/22 13:07:24;;;;;;;3.10;2.80;;;34.20;37.50;;;;;;5033790;28;20428;-73
2022/08/22 13:09:58;;;;;;;2.97;2.07;;;34.10;34.00;;;;;;5033728;28;20413;-73
2022/08/22 13:12:42;;;;;;;3.60;2.10;;;34.00;34.60;;;;;;5033268;28;20434;-73
2022/08/22 13:15:24;;;;;;;3.40;1.90;;;34.00;36.20;;;;;;5033531;28;20415;-73
2022/08/22 13:17:51;;;;;;;2.80;2.17;;;34.20;35.40;;;;;;5033465;28;20406;-74
2022/08/22 13:20:28;;;;;;;1.93;1.83;;;34.40;35.70;;;;;;5033477;28;20398;-72
2022/08/22 13:22:55;;;;;;;1.87;1.77;;;34.90;36.30;;;;;;5033545;28;20449;-72
2022/08/22 13:25:20;;;;;;;2.20;2.00;;;35.40;36.10;;;;;;5033280;28;20398;-72
2022/08/22 13:27:53;;;;;;;4.40;2.17;;;35.80;33.90;;;;;;5033077;28;20776;-72
2022/08/22 13:30:30;;;;;;;2.33;1.90;;;36.30;33.90;;;;;;5033530;28;20168;-72
2022/08/22 13:33:05;;;;;;;2.50;2.30;;;36.90;33.30;;;;;;5013381;28;20623;-72
2022/08/22 13:35:51;;;;;;;5.00;2.10;;;37.20;33.80;;;;;;5013372;28;20410;-72
2022/08/22 13:38:25;;;;;;;3.37;3.07;;;37.40;34.80;;;;;;5013429;28;20433;-72
2022/08/22 13:40:53;;;;;;;2.90;2.60;;;37.50;32.60;;;;;;5016827;28;20418;-72
2022/08/22 13:43:25;;;;;;;2.47;2.27;;;37.50;32.00;;;;;;5033068;28;20509;-72
2022/08/22 13:45:57;;;;;;;3.77;2.10;;;37.40;33.80;;;;;;5032660;28;20413;-72
2022/08/22 13:48:27;;;;;;;3.30;1.80;;;37.60;32.80;;;;;;5033203;28;20411;-72
2022/08/22 13:51:13;;;;;;;2.80;1.80;;;37.60;32.70;;;;;;5032987;28;20484;-72
2022/08/22 13:53:42;;;;;;;2.77;2.57;;;37.50;32.70;;;;;;5032915;28;20461;-72
2022/08/22 13:56:20;;;;;;;2.77;2.20;;;37.30;32.00;;;;;;5032954;28;20385;-72
2022/08/22 13:58:52;;;;;;;2.80;2.33;;;37.10;32.50;;;;;;5032733;28;20380;-72
2022/08/22 14:01:26;;;;;;;7.73;2.00;;;37.00;32.70;;;;;;5032683;28;20414;-72
2022/08/22 14:04:00;;;;;;;2.30;2.00;;;36.90;31.90;;;;;;5032687;28;20422;-72